Time;durP1;ratioP1;P1;durP2;ratioP2;P2;SDS_P1;SDS_P2;PMS_P1;PMS_P2;Temp;Humidity;BMP_temperature;BMP_pressure;BME280_temperature;BME280_humidity;BME280_pressure;Samples;Min_cycle;Max_cycle;Signal;HPM_P1;HPM_P2
2023/03/04 00:01:47;;;;;;;17.27;2.13;;;6.20;99.90;;;;;;4963158;28;20329;-67
2023/03/04 00:04:12;;;;;;;12.45;2.33;;;6.30;99.90;;;;;;4974180;28;20046;-67
2023/03/04 00:06:38;;;;;;;8.60;1.43;;;6.30;99.90;;;;;;4974527;28;20725;-67
2023/03/04 00:09:05;;;;;;;8.93;1.73;;;6.30;99.90;;;;;;4973473;28;20497;-67
2023/03/04 00:11:31;;;;;;;9.47;1.67;;;6.30;99.90;;;;;;4974070;28;20105;-67
2023/03/04 00:13:57;;;;;;;12.30;1.60;;;6.30;99.90;;;;;;4961922;28;20100;-67
2023/03/04 00:16:26;;;;;;;3.70;1.37;;;6.30;99.90;;;;;;4957083;28;20078;-67
2023/03/04 00:18:55;;;;;;;4.70;1.50;;;6.20;99.90;;;;;;4978408;28;20703;-67
2023/03/04 00:21:21;;;;;;;5.80;2.10;;;6.30;99.90;;;;;;4959739;28;20045;-67
2023/03/04 00:23:47;;;;;;;10.02;1.25;;;6.20;99.90;;;;;;4956937;28;20039;-67
2023/03/04 00:26:13;;;;;;;6.00;1.53;;;6.20;99.90;;;;;;4972699;28;20043;-67
2023/03/04 00:28:39;;;;;;;13.57;1.77;;;6.20;99.90;;;;;;4980425;28;20651;-67
2023/03/04 00:31:05;;;;;;;7.78;1.70;;;6.20;99.90;;;;;;4979218;28;20047;-67
2023/03/04 00:33:31;;;;;;;8.80;1.20;;;6.20;99.90;;;;;;4983415;28;20042;-67
2023/03/04 00:35:57;;;;;;;8.20;1.63;;;6.20;99.90;;;;;;4979152;28;20050;-67
2023/03/04 00:38:26;;;;;;;2.80;0.70;;;6.20;99.90;;;;;;4961644;28;20108;-67
2023/03/04 00:40:55;;;;;;;11.73;1.25;;;6.20;99.90;;;;;;4965293;28;20046;-67
2023/03/04 00:43:21;;;;;;;5.95;1.17;;;6.20;99.90;;;;;;4971578;28;20128;-67
2023/03/04 00:45:47;;;;;;;11.48;1.52;;;6.20;99.90;;;;;;4961152;28;20453;-67
2023/03/04 00:48:13;;;;;;;5.53;0.77;;;6.20;99.90;;;;;;4964975;28;20046;-67
2023/03/04 00:50:39;;;;;;;6.30;1.05;;;6.20;99.90;;;;;;4965524;28;20058;-67
2023/03/04 00:53:05;;;;;;;8.17;1.37;;;6.20;99.90;;;;;;4976504;28;20495;-71
2023/03/04 00:55:31;;;;;;;10.10;1.17;;;6.20;99.90;;;;;;4976562;28;20042;-67
2023/03/04 00:57:59;;;;;;;4.03;1.20;;;6.20;99.90;;;;;;4960240;28;20122;-67
2023/03/04 01:00:25;;;;;;;3.53;1.02;;;6.30;99.90;;;;;;4976275;28;20160;-67
2023/03/04 01:02:51;;;;;;;7.65;1.48;;;6.30;99.90;;;;;;4964884;28;20151;-67
2023/03/04 01:05:17;;;;;;;15.20;1.50;;;6.30;99.90;;;;;;4966107;28;20046;-67
2023/03/04 01:07:43;;;;;;;12.20;1.10;;;6.20;99.90;;;;;;4988757;28;20035;-67
2023/03/04 01:10:10;;;;;;;12.53;1.17;;;6.20;99.90;;;;;;4969850;28;20177;-67
2023/03/04 01:12:36;;;;;;;6.85;1.60;;;6.20;99.90;;;;;;4984940;28;20764;-67
2023/03/04 01:15:03;;;;;;;9.67;1.50;;;6.20;99.90;;;;;;4962419;28;20077;-68
2023/03/04 01:17:28;;;;;;;11.18;1.02;;;6.20;99.90;;;;;;4961190;28;20081;-67
2023/03/04 01:19:54;;;;;;;13.30;1.20;;;6.20;99.90;;;;;;4986617;28;20065;-67
2023/03/04 01:22:20;;;;;;;9.82;1.15;;;6.20;99.90;;;;;;4970832;28;20039;-68
2023/03/04 01:24:45;;;;;;;8.30;1.10;;;6.20;99.90;;;;;;4968403;28;20463;-69
2023/03/04 01:27:11;;;;;;;6.70;1.73;;;6.20;99.90;;;;;;4968159;28;20042;-68
2023/03/04 01:29:37;;;;;;;9.70;1.35;;;6.20;99.90;;;;;;4969035;28;20116;-68
2023/03/04 01:32:03;;;;;;;12.57;1.60;;;6.20;99.90;;;;;;4949734;28;20060;-69
2023/03/04 01:34:29;;;;;;;13.20;1.45;;;6.20;99.90;;;;;;4987979;28;20042;-68
2023/03/04 01:36:55;;;;;;;7.93;1.20;;;6.20;99.90;;;;;;4987220;28;20403;-69
2023/03/04 01:39:20;;;;;;;12.33;1.40;;;6.10;99.90;;;;;;4948483;28;20508;-68
2023/03/04 01:41:46;;;;;;;9.73;1.73;;;6.10;99.90;;;;;;4983607;28;20038;-68
2023/03/04 01:44:12;;;;;;;6.80;1.37;;;6.10;99.90;;;;;;4969780;28;20038;-68
2023/03/04 01:46:42;;;;;;;7.30;1.20;;;6.10;99.90;;;;;;4970500;28;20089;-69
2023/03/04 01:49:12;;;;;;;6.88;1.08;;;6.10;99.90;;;;;;4970256;28;20756;-68
2023/03/04 01:51:39;;;;;;;5.68;1.02;;;6.10;99.90;;;;;;4990746;28;20042;-68
2023/03/04 01:54:04;;;;;;;20.10;1.85;;;6.10;99.90;;;;;;4989210;28;20042;-69
2023/03/04 01:56:35;;;;;;;6.40;1.20;;;6.10;99.90;;;;;;4970960;28;20097;-68
2023/03/04 01:59:14;;;;;;;7.15;0.95;;;6.20;99.90;;;;;;4972231;28;20034;-69
2023/03/04 02:01:44;;;;;;;6.07;1.23;;;6.20;99.90;;;;;;4987140;28;20093;-68
2023/03/04 02:04:10;;;;;;;8.30;1.38;;;6.20;99.90;;;;;;4967616;28;20089;-68
2023/03/04 02:06:36;;;;;;;;;;;6.20;99.90;;;;;;4988692;28;20054;-68
2023/03/04 02:09:03;;;;;;;9.68;1.45;;;6.10;99.90;;;;;;4970492;28;20012;-68
2023/03/04 02:11:29;;;;;;;;;;;6.10;99.90;;;;;;4988534;28;20080;-69
2023/03/04 02:13:55;;;;;;;8.20;1.15;;;6.10;99.90;;;;;;4986857;28;20441;-68
2023/03/04 02:16:21;;;;;;;8.93;1.10;;;6.10;99.90;;;;;;4970092;28;20043;-69
2023/03/04 02:18:47;;;;;;;4.77;1.17;;;6.10;99.90;;;;;;4970905;28;20046;-68
2023/03/04 02:21:24;;;;;;;5.87;1.33;;;6.10;99.90;;;;;;4984220;28;20268;-68
2023/03/04 02:24:22;;;;;;;8.20;1.17;;;6.10;99.90;;;;;;4960767;28;20072;-68
2023/03/04 02:26:48;;;;;;;12.60;1.85;;;6.00;99.90;;;;;;4979759;28;20104;-69
2023/03/04 02:29:15;;;;;;;5.20;1.00;;;6.00;99.90;;;;;;4985483;28;20429;-69
2023/03/04 02:31:47;;;;;;;7.07;0.90;;;6.10;99.90;;;;;;4968196;28;20042;-69
2023/03/04 02:34:17;;;;;;;7.75;2.08;;;6.00;99.90;;;;;;4969752;28;20034;-67
2023/03/04 02:36:44;;;;;;;6.95;1.20;;;6.00;99.90;;;;;;4982975;28;20060;-69
2023/03/04 02:39:38;;;;;;;5.40;1.00;;;6.10;99.90;;;;;;4961548;28;20449;-70
2023/03/04 02:42:03;;;;;;;3.28;0.95;;;6.10;99.90;;;;;;4966499;28;20512;-70
2023/03/04 02:44:33;;;;;;;7.20;1.00;;;6.00;99.90;;;;;;4982277;28;20046;-69
2023/03/04 02:46:59;;;;;;;6.90;1.02;;;6.10;99.90;;;;;;4964574;28;20415;-69
2023/03/04 02:49:27;;;;;;;8.52;1.30;;;6.10;99.90;;;;;;4984387;28;20058;-70
2023/03/04 02:52:00;;;;;;;3.42;0.75;;;6.00;99.90;;;;;;4958806;28;20043;-69
2023/03/04 02:54:26;;;;;;;7.15;1.25;;;6.10;99.90;;;;;;4959088;28;20042;-69
2023/03/04 02:56:53;;;;;;;7.57;1.43;;;6.10;99.90;;;;;;4980999;28;20552;-69
2023/03/04 02:59:21;;;;;;;5.45;0.93;;;6.00;99.90;;;;;;4962763;28;20109;-68
2023/03/04 03:01:47;;;;;;;4.55;1.35;;;6.00;99.90;;;;;;4959433;28;20378;-68
2023/03/04 03:04:13;;;;;;;5.97;1.42;;;6.10;99.90;;;;;;4949392;28;20030;-69
2023/03/04 03:06:39;;;;;;;5.60;1.73;;;6.10;99.90;;;;;;4981502;28;20125;-69
2023/03/04 03:09:05;;;;;;;3.57;1.00;;;6.10;99.90;;;;;;4957438;28;20206;-70
2023/03/04 03:11:31;;;;;;;7.97;1.38;;;6.10;99.90;;;;;;4978313;28;20295;-69
2023/03/04 03:13:57;;;;;;;5.30;1.10;;;6.10;99.90;;;;;;4979844;28;20419;-70
2023/03/04 03:16:23;;;;;;;7.77;0.93;;;6.10;99.90;;;;;;4972965;28;20143;-70
2023/03/04 03:18:48;;;;;;;11.13;1.45;;;6.10;99.90;;;;;;4966009;28;20065;-69
2023/03/04 03:21:14;;;;;;;7.87;1.03;;;6.10;99.90;;;;;;4964745;28;20038;-69
2023/03/04 03:23:40;;;;;;;6.27;1.43;;;6.10;99.90;;;;;;4961554;28;20042;-70
2023/03/04 03:26:05;;;;;;;9.87;1.07;;;6.10;99.90;;;;;;4964857;28;20054;-72
2023/03/04 03:28:31;;;;;;;6.93;1.20;;;6.10;99.90;;;;;;4983311;28;20126;-68
2023/03/04 03:30:59;;;;;;;7.83;1.37;;;6.10;99.90;;;;;;4978778;28;20482;-67
2023/03/04 03:33:25;;;;;;;6.40;1.77;;;6.10;99.90;;;;;;4983804;28;20321;-67
2023/03/04 03:35:51;;;;;;;8.82;1.10;;;6.10;99.90;;;;;;4984139;28;20554;-70
2023/03/04 03:38:17;;;;;;;3.80;1.33;;;6.10;99.90;;;;;;4982781;28;20046;-70
2023/03/04 03:40:42;;;;;;;5.00;1.00;;;6.10;99.90;;;;;;4962269;28;20405;-70
2023/03/04 03:43:08;;;;;;;12.07;1.47;;;6.10;99.90;;;;;;4963563;28;20046;-67
2023/03/04 03:45:34;;;;;;;12.40;1.43;;;6.10;99.90;;;;;;4963722;28;20374;-69
2023/03/04 03:47:59;;;;;;;5.87;1.33;;;6.10;99.90;;;;;;4983302;28;20418;-69
2023/03/04 03:50:25;;;;;;;6.57;0.80;;;6.20;99.90;;;;;;4984137;28;20417;-68
2023/03/04 03:52:50;;;;;;;9.43;1.97;;;6.10;99.90;;;;;;4966963;28;20070;-69
2023/03/04 03:55:16;;;;;;;5.33;1.03;;;6.10;99.90;;;;;;4981743;28;20096;-68
2023/03/04 03:57:42;;;;;;;5.87;0.90;;;6.10;99.90;;;;;;4978280;28;20118;-68
2023/03/04 04:00:08;;;;;;;8.07;1.57;;;6.10;99.90;;;;;;4962889;28;20532;-69
2023/03/04 04:02:34;;;;;;;;;;;6.10;99.90;;;;;;4980389;28;20573;-68
2023/03/04 04:04:59;;;;;;;7.25;1.25;;;6.10;99.90;;;;;;4965191;28;20162;-69
2023/03/04 04:07:25;;;;;;;3.47;0.70;;;6.10;99.90;;;;;;4994539;23;20076;-68
2023/03/04 04:09:51;;;;;;;4.40;0.70;;;6.10;99.90;;;;;;4989676;28;20187;-67
2023/03/04 04:12:18;;;;;;;3.17;0.70;;;6.10;99.90;;;;;;5001012;28;20125;-69
2023/03/04 04:14:44;;;;;;;5.65;0.70;;;6.10;99.90;;;;;;4967927;28;20393;-69
2023/03/04 04:17:10;;;;;;;2.17;1.00;;;6.10;99.90;;;;;;5001876;28;20037;-69
2023/03/04 04:19:36;;;;;;;2.97;1.25;;;6.10;99.90;;;;;;4986491;28;20279;-69
2023/03/04 04:22:02;;;;;;;2.95;0.60;;;6.10;99.90;;;;;;5002202;28;20167;-69
2023/03/04 04:24:28;;;;;;;7.07;1.02;;;6.10;99.90;;;;;;5002841;28;20056;-69
2023/03/04 04:26:54;;;;;;;3.53;0.90;;;6.10;99.90;;;;;;5002559;28;20212;-69
2023/03/04 04:29:21;;;;;;;3.10;0.90;;;6.10;99.90;;;;;;5001564;28;20291;-69
2023/03/04 04:31:47;;;;;;;10.00;0.98;;;6.10;99.90;;;;;;5002208;28;20132;-69
2023/03/04 04:34:13;;;;;;;6.97;1.00;;;6.20;99.90;;;;;;4978807;28;20494;-68
2023/03/04 04:36:39;;;;;;;7.07;0.80;;;6.10;99.90;;;;;;4982645;28;20354;-69
2023/03/04 04:39:04;;;;;;;5.33;0.90;;;6.20;99.90;;;;;;5001590;28;20046;-69
2023/03/04 04:41:35;;;;;;;8.23;0.97;;;6.20;99.90;;;;;;5003276;28;20038;-68
2023/03/04 04:44:01;;;;;;;3.00;0.70;;;6.20;99.90;;;;;;4986748;28;20433;-69
2023/03/04 04:46:27;;;;;;;4.07;1.00;;;6.20;99.90;;;;;;4983300;28;20049;-69
2023/03/04 04:48:53;;;;;;;7.33;0.90;;;6.20;99.90;;;;;;4970265;28;20056;-69
2023/03/04 04:51:18;;;;;;;3.57;0.47;;;6.20;99.90;;;;;;5001664;28;20034;-69
2023/03/04 04:53:44;;;;;;;2.37;0.70;;;6.20;99.90;;;;;;5000960;28;20129;-69
2023/03/04 04:56:19;;;;;;;3.83;0.57;;;6.20;99.90;;;;;;4998959;28;20133;-68
2023/03/04 04:58:46;;;;;;;3.05;0.40;;;6.20;99.90;;;;;;4986358;28;20140;-69
2023/03/04 05:01:12;;;;;;;2.72;0.40;;;6.20;99.90;;;;;;4979638;28;20046;-68
2023/03/04 05:03:38;;;;;;;4.68;0.57;;;6.20;99.90;;;;;;4999579;28;20095;-69
2023/03/04 05:06:07;;;;;;;1.95;0.47;;;6.30;99.90;;;;;;4998970;28;20050;-69
2023/03/04 05:08:33;;;;;;;7.28;0.88;;;6.30;99.90;;;;;;5004232;28;20029;-69
2023/03/04 05:10:58;;;;;;;1.30;0.30;;;6.30;99.90;;;;;;5006877;28;20493;-68
2023/03/04 05:13:24;;;;;;;1.43;0.40;;;6.20;99.90;;;;;;4984886;28;20485;-68
2023/03/04 05:15:52;;;;;;;1.33;0.30;;;6.20;99.90;;;;;;5005293;28;20049;-69
2023/03/04 05:18:18;;;;;;;4.38;0.65;;;6.10;99.90;;;;;;4989971;28;20465;-69
2023/03/04 05:20:44;;;;;;;4.45;0.57;;;6.10;99.90;;;;;;5007585;28;20394;-69
2023/03/04 05:23:10;;;;;;;3.27;0.60;;;6.00;99.90;;;;;;4989443;28;20383;-68
2023/03/04 05:25:35;;;;;;;5.03;0.57;;;6.00;99.90;;;;;;4986581;28;20057;-69
2023/03/04 05:28:01;;;;;;;5.13;0.80;;;6.00;99.90;;;;;;5004474;28;20045;-69
2023/03/04 05:30:27;;;;;;;5.47;0.90;;;6.00;99.90;;;;;;5004774;28;20493;-68
2023/03/04 05:32:53;;;;;;;1.45;0.98;;;6.00;99.90;;;;;;4967107;28;20637;-68
2023/03/04 05:35:18;;;;;;;4.80;0.97;;;6.00;99.90;;;;;;4987119;28;20046;-69
2023/03/04 05:37:44;;;;;;;0.87;0.43;;;6.00;99.90;;;;;;4999463;28;20053;-68
2023/03/04 05:40:10;;;;;;;2.40;0.57;;;6.00;99.90;;;;;;5005329;28;20104;-68
2023/03/04 05:42:36;;;;;;;2.58;0.50;;;6.00;99.90;;;;;;5005495;28;20137;-68
2023/03/04 05:45:02;;;;;;;1.20;0.30;;;6.00;99.90;;;;;;4987523;28;20167;-68
2023/03/04 05:47:27;;;;;;;3.25;0.55;;;6.00;99.90;;;;;;4985471;28;20050;-68
2023/03/04 05:49:53;;;;;;;5.80;0.60;;;6.00;99.90;;;;;;4992089;28;20155;-68
2023/03/04 05:52:19;;;;;;;2.93;0.57;;;6.00;99.90;;;;;;5006511;28;20501;-68
2023/03/04 05:54:44;;;;;;;0.77;0.30;;;6.00;99.90;;;;;;5004241;28;20052;-68
2023/03/04 05:57:10;;;;;;;2.60;0.50;;;6.00;99.90;;;;;;5003435;28;20108;-68
2023/03/04 05:59:36;;;;;;;5.03;0.90;;;5.90;99.90;;;;;;4988146;28;20095;-68
2023/03/04 06:02:01;;;;;;;8.83;0.90;;;5.90;99.90;;;;;;4989102;28;20049;-69
2023/03/04 06:04:27;;;;;;;2.73;0.60;;;5.90;99.90;;;;;;4993235;28;20505;-68
2023/03/04 06:06:52;;;;;;;6.57;0.60;;;5.90;99.90;;;;;;5005693;28;20038;-68
2023/03/04 06:09:19;;;;;;;5.03;0.70;;;5.90;99.90;;;;;;5002290;28;20050;-68
2023/03/04 06:11:45;;;;;;;4.18;0.80;;;5.90;99.90;;;;;;4988071;28;20370;-69
2023/03/04 06:14:11;;;;;;;3.85;0.63;;;5.90;99.90;;;;;;4972206;28;20068;-69
2023/03/04 06:16:37;;;;;;;2.67;0.60;;;5.90;99.90;;;;;;4988097;28;20045;-69
2023/03/04 06:19:02;;;;;;;4.20;0.47;;;5.90;99.90;;;;;;4987338;28;20084;-69
2023/03/04 06:21:28;;;;;;;1.57;0.47;;;6.00;99.90;;;;;;5000667;28;20038;-69
2023/03/04 06:23:54;;;;;;;5.37;0.87;;;6.00;99.90;;;;;;5002738;28;20048;-68
2023/03/04 06:26:19;;;;;;;3.53;0.57;;;6.00;99.90;;;;;;5007155;28;20061;-68
2023/03/04 06:28:45;;;;;;;2.87;1.00;;;5.90;99.90;;;;;;5001706;28;20044;-69
2023/03/04 06:31:11;;;;;;;3.10;0.40;;;5.90;99.90;;;;;;4987611;28;20370;-69
2023/03/04 06:33:36;;;;;;;2.17;0.57;;;5.90;99.90;;;;;;4986681;28;20038;-69
2023/03/04 06:36:03;;;;;;;2.80;0.60;;;5.90;99.90;;;;;;4983902;28;20092;-69
2023/03/04 06:38:28;;;;;;;2.13;0.70;;;5.90;99.90;;;;;;4987186;28;20116;-69
2023/03/04 06:40:54;;;;;;;4.73;0.40;;;5.90;99.90;;;;;;5001727;28;20046;-69
2023/03/04 06:43:20;;;;;;;3.67;0.70;;;5.90;99.90;;;;;;5001086;28;20138;-69
2023/03/04 06:45:46;;;;;;;2.43;0.70;;;5.90;99.90;;;;;;5005091;28;20041;-69
2023/03/04 06:48:12;;;;;;;5.07;0.63;;;5.80;99.90;;;;;;4985590;28;20046;-68
2023/03/04 06:50:41;;;;;;;3.72;0.82;;;5.90;99.90;;;;;;4989491;28;20065;-68
2023/03/04 06:53:07;;;;;;;8.35;1.20;;;5.90;99.90;;;;;;5006776;28;20057;-68
2023/03/04 06:55:32;;;;;;;5.93;0.90;;;5.90;99.90;;;;;;5002611;28;20042;-69
2023/03/04 06:57:58;;;;;;;7.93;0.93;;;5.90;99.90;;;;;;5005349;28;20042;-69
2023/03/04 07:00:24;;;;;;;7.57;0.70;;;5.90;99.90;;;;;;4987220;28;20080;-68
2023/03/04 07:02:50;;;;;;;3.60;0.60;;;5.90;99.90;;;;;;4995420;28;20045;-68
2023/03/04 07:05:15;;;;;;;1.52;0.45;;;5.90;99.90;;;;;;4984759;28;20045;-69
2023/03/04 07:07:41;;;;;;;4.77;0.70;;;5.90;99.90;;;;;;5000204;28;20426;-69
2023/03/04 07:10:08;;;;;;;2.77;1.70;;;5.90;99.90;;;;;;4983778;28;20057;-69
2023/03/04 07:12:35;;;;;;;4.65;0.82;;;6.00;99.90;;;;;;5005443;28;20072;-69
2023/03/04 07:15:01;;;;;;;3.45;0.90;;;6.00;99.90;;;;;;5005829;28;20129;-69
2023/03/04 07:17:26;;;;;;;3.83;0.63;;;6.00;99.90;;;;;;4987163;28;20137;-69
2023/03/04 07:19:52;;;;;;;3.40;1.07;;;6.00;99.90;;;;;;5005708;28;20050;-70
2023/03/04 07:22:18;;;;;;;10.70;1.03;;;6.00;99.90;;;;;;4983741;28;20484;-68
2023/03/04 07:24:43;;;;;;;3.67;0.63;;;6.00;99.90;;;;;;5000796;28;20101;-68
2023/03/04 07:27:09;;;;;;;5.27;0.90;;;6.10;99.90;;;;;;4983854;28;20128;-68
2023/03/04 07:29:35;;;;;;;2.70;0.57;;;6.10;99.90;;;;;;5004371;28;20041;-69
2023/03/04 07:32:00;;;;;;;5.43;0.70;;;6.10;99.90;;;;;;5004754;28;20053;-69
2023/03/04 07:34:26;;;;;;;7.43;0.83;;;6.20;99.90;;;;;;4986727;28;20099;-68
2023/03/04 07:36:52;;;;;;;3.43;0.50;;;6.10;99.90;;;;;;5003312;28;20085;-69
2023/03/04 07:39:17;;;;;;;3.40;0.80;;;6.10;99.90;;;;;;4985255;28;20044;-68
2023/03/04 07:41:43;;;;;;;7.47;1.87;;;6.20;99.90;;;;;;5003178;28;20073;-68
2023/03/04 07:44:11;;;;;;;3.90;0.77;;;6.20;99.90;;;;;;5003409;28;20382;-68
2023/03/04 07:46:37;;;;;;;3.50;0.77;;;6.30;99.90;;;;;;5004792;28;20048;-69
2023/03/04 07:49:02;;;;;;;7.30;1.03;;;6.30;99.90;;;;;;4986993;28;20046;-68
2023/03/04 07:51:28;;;;;;;6.15;1.38;;;6.30;99.90;;;;;;4998559;28;20053;-68
2023/03/04 07:54:00;;;;;;;5.43;1.00;;;6.40;99.90;;;;;;5012196;28;20111;-68
2023/03/04 07:56:32;;;;;;;5.07;0.85;;;6.40;99.90;;;;;;4987114;28;20457;-69
2023/03/04 07:58:58;;;;;;;13.23;1.50;;;6.40;99.90;;;;;;4987107;28;20466;-69
2023/03/04 08:01:27;;;;;;;5.70;0.80;;;6.50;99.90;;;;;;4988555;28;20185;-69
2023/03/04 08:03:53;;;;;;;7.68;1.20;;;6.50;99.90;;;;;;4987932;28;20196;-69
2023/03/04 08:06:20;;;;;;;11.60;1.50;;;6.60;99.90;;;;;;4983900;28;20133;-69
2023/03/04 08:08:47;;;;;;;5.03;1.10;;;6.60;99.90;;;;;;4989756;28;20521;-68
2023/03/04 08:11:18;;;;;;;5.63;1.27;;;6.60;99.90;;;;;;4968336;28;20173;-69
2023/03/04 08:13:44;;;;;;;15.48;1.50;;;6.70;99.90;;;;;;4978983;28;20042;-69
2023/03/04 08:16:14;;;;;;;8.82;1.48;;;6.70;99.90;;;;;;4973574;28;20509;-69
2023/03/04 08:18:44;;;;;;;6.35;1.27;;;6.70;99.90;;;;;;4982574;28;20120;-69
2023/03/04 08:21:11;;;;;;;8.65;1.02;;;6.70;99.90;;;;;;4998221;28;20034;-69
2023/03/04 08:23:37;;;;;;;;;;;6.70;99.90;;;;;;4999856;28;20035;-68
2023/03/04 08:26:08;;;;;;;13.65;1.00;;;6.70;99.90;;;;;;4988391;28;20552;-69
2023/03/04 08:28:34;;;;;;;10.45;1.42;;;6.70;99.90;;;;;;5002433;28;20125;-69
2023/03/04 08:31:00;;;;;;;7.93;1.45;;;6.80;99.90;;;;;;5001978;28;20177;-69
2023/03/04 08:33:26;;;;;;;10.33;1.57;;;6.80;99.90;;;;;;4986356;28;20463;-68
2023/03/04 08:35:53;;;;;;;7.47;1.27;;;6.80;99.90;;;;;;5001156;28;20150;-69
2023/03/04 08:38:18;;;;;;;9.23;1.48;;;6.80;99.90;;;;;;4996835;28;20110;-68
2023/03/04 08:40:44;;;;;;;6.80;1.40;;;6.80;99.90;;;;;;5001297;28;20100;-69
2023/03/04 08:43:10;;;;;;;7.77;1.93;;;6.80;99.90;;;;;;5006277;28;20046;-69
2023/03/04 08:45:35;;;;;;;7.87;1.37;;;6.80;99.90;;;;;;5002143;28;20103;-69
2023/03/04 08:48:01;;;;;;;6.97;1.40;;;6.80;99.90;;;;;;5010351;28;20355;-69
2023/03/04 08:50:27;;;;;;;13.85;1.85;;;6.90;99.90;;;;;;5006977;28;20125;-69
2023/03/04 08:52:53;;;;;;;10.70;1.10;;;6.90;99.90;;;;;;4985837;28;20125;-69
2023/03/04 08:55:19;;;;;;;6.53;1.43;;;6.90;99.90;;;;;;5007577;28;20343;-69
2023/03/04 08:57:45;;;;;;;8.73;1.53;;;6.90;99.90;;;;;;4989481;28;20136;-69
2023/03/04 09:00:11;;;;;;;4.83;1.37;;;7.00;99.90;;;;;;4988552;28;20038;-69
2023/03/04 09:02:37;;;;;;;4.63;1.13;;;7.00;99.90;;;;;;4988898;28;20164;-69
2023/03/04 09:05:03;;;;;;;5.63;1.53;;;7.00;99.90;;;;;;5004260;28;20073;-69
2023/03/04 09:07:28;;;;;;;12.82;1.77;;;7.10;99.90;;;;;;4996890;28;20046;-69
2023/03/04 09:09:54;;;;;;;8.83;2.40;;;7.10;99.90;;;;;;4972573;28;20046;-69
2023/03/04 09:12:19;;;;;;;11.60;1.60;;;7.10;99.90;;;;;;4985712;28;20077;-69
2023/03/04 09:14:45;;;;;;;5.90;1.10;;;7.10;99.90;;;;;;4987303;28;20046;-69
2023/03/04 09:17:11;;;;;;;3.93;0.97;;;7.20;99.90;;;;;;4989887;28;20049;-69
2023/03/04 09:19:36;;;;;;;5.33;1.67;;;7.20;99.90;;;;;;4991646;28;20132;-69
2023/03/04 09:22:02;;;;;;;12.03;2.33;;;7.20;99.90;;;;;;4988588;28;20054;-69
2023/03/04 09:24:28;;;;;;;11.67;1.60;;;7.20;99.90;;;;;;5002273;28;20103;-69
2023/03/04 09:26:53;;;;;;;5.43;1.60;;;7.30;99.90;;;;;;5002441;28;20191;-69
2023/03/04 09:29:20;;;;;;;8.00;1.33;;;7.20;99.90;;;;;;4997990;28;20042;-69
2023/03/04 09:31:45;;;;;;;8.15;1.83;;;7.20;99.90;;;;;;4972825;28;20555;-69
2023/03/04 09:34:11;;;;;;;11.57;2.10;;;7.20;99.90;;;;;;5008696;28;20062;-69
2023/03/04 09:36:36;;;;;;;5.80;1.57;;;7.20;99.90;;;;;;4971674;28;20267;-69
2023/03/04 09:39:04;;;;;;;9.60;1.17;;;7.20;99.90;;;;;;5005903;28;20037;-69
2023/03/04 09:41:43;;;;;;;14.52;1.27;;;7.20;99.90;;;;;;5003042;28;20042;-69
2023/03/04 09:44:19;;;;;;;8.02;2.17;;;7.20;99.90;;;;;;5017136;28;20046;-69
2023/03/04 09:46:46;;;;;;;15.05;1.85;;;7.20;99.90;;;;;;4988464;28;20045;-69
2023/03/04 09:49:13;;;;;;;6.60;1.75;;;7.20;99.90;;;;;;5004595;28;20456;-69
2023/03/04 09:52:02;;;;;;;6.90;1.67;;;7.20;99.90;;;;;;4985291;28;20113;-68
2023/03/04 09:54:46;;;;;;;6.00;1.58;;;7.30;99.90;;;;;;4985559;28;20073;-69
2023/03/04 09:57:41;;;;;;;7.28;1.63;;;7.30;99.90;;;;;;4988370;28;20046;-69
2023/03/04 10:00:18;;;;;;;12.25;1.83;;;7.30;99.90;;;;;;4989276;28;20453;-69
2023/03/04 10:03:09;;;;;;;9.27;2.25;;;7.30;99.90;;;;;;5004807;28;20117;-69
2023/03/04 10:06:04;;;;;;;14.90;2.55;;;7.30;99.90;;;;;;5000352;28;20038;-69
2023/03/04 10:08:40;;;;;;;11.88;2.75;;;7.30;99.90;;;;;;4985868;28;20050;-69
2023/03/04 10:11:20;;;;;;;11.60;1.73;;;7.30;99.90;;;;;;5001565;28;20046;-69
2023/03/04 10:14:13;;;;;;;8.00;2.20;;;7.40;99.90;;;;;;5018438;28;20046;-69
2023/03/04 10:16:44;;;;;;;7.30;2.05;;;7.40;99.90;;;;;;5051742;22;20180;-73
2023/03/04 10:19:13;;;;;;;7.70;2.58;;;7.40;99.90;;;;;;4992116;28;20046;-73
2023/03/04 10:21:45;;;;;;;7.03;1.92;;;7.50;99.90;;;;;;5008633;28;20037;-73
2023/03/04 10:24:13;;;;;;;7.22;1.25;;;7.50;99.90;;;;;;4986949;28;20064;-73
2023/03/04 10:26:43;;;;;;;8.18;1.27;;;7.50;99.90;;;;;;5003005;28;20046;-73
2023/03/04 10:29:17;;;;;;;6.40;1.30;;;7.50;99.90;;;;;;4983858;28;20386;-72
2023/03/04 10:31:44;;;;;;;2.33;0.50;;;7.60;99.90;;;;;;4980357;28;20133;-73
2023/03/04 10:34:12;;;;;;;3.13;0.60;;;7.60;99.90;;;;;;4982216;28;20062;-72
2023/03/04 10:37:06;;;;;;;3.75;0.73;;;7.70;99.90;;;;;;4983970;28;20034;-73
2023/03/04 10:39:43;;;;;;;5.63;1.00;;;7.70;99.90;;;;;;4964547;28;20665;-72
2023/03/04 10:42:15;;;;;;;2.70;0.80;;;7.60;99.90;;;;;;5009171;28;20050;-72
2023/03/04 10:44:49;;;;;;;5.53;1.15;;;7.50;99.90;;;;;;4997610;28;20064;-73
2023/03/04 10:47:15;;;;;;;6.72;1.27;;;7.40;99.90;;;;;;4974970;28;20559;-72
2023/03/04 10:49:55;;;;;;;8.70;1.30;;;7.20;99.90;;;;;;4994150;28;20037;-73
2023/03/04 10:52:27;;;;;;;6.45;1.25;;;7.10;99.90;;;;;;4979228;28;20560;-72
2023/03/04 10:55:02;;;;;;;8.02;1.73;;;7.10;99.90;;;;;;4968248;28;20048;-72
2023/03/04 10:57:38;;;;;;;8.75;1.80;;;7.10;99.90;;;;;;4987623;28;20052;-72
2023/03/04 11:00:25;;;;;;;9.80;1.77;;;7.20;99.90;;;;;;4974290;28;20052;-72
2023/03/04 11:02:50;;;;;;;5.38;2.30;;;7.30;99.90;;;;;;4971922;28;20072;-72
2023/03/04 11:05:22;;;;;;;16.33;5.00;;;7.40;99.90;;;;;;4988965;28;20643;-72
2023/03/04 11:07:53;;;;;;;15.95;4.68;;;7.60;99.90;;;;;;4973368;28;20061;-75
2023/03/04 11:10:24;;;;;;;13.68;3.65;;;7.60;99.90;;;;;;4958359;28;20068;-72
2023/03/04 11:12:58;;;;;;;5.75;2.25;;;7.80;99.90;;;;;;4973835;28;20078;-73
2023/03/04 11:15:26;;;;;;;9.57;1.65;;;8.00;99.90;;;;;;4987941;28;20072;-72
2023/03/04 11:18:04;;;;;;;8.48;2.78;;;8.00;99.90;;;;;;4994468;28;20074;-72
2023/03/04 11:20:31;;;;;;;10.68;2.05;;;8.10;99.90;;;;;;4977188;28;20042;-73
2023/03/04 11:23:13;;;;;;;11.30;2.75;;;8.10;99.90;;;;;;4981425;28;20037;-73
2023/03/04 11:25:48;;;;;;;9.05;2.05;;;8.20;99.90;;;;;;4975984;28;20045;-73
2023/03/04 11:28:25;;;;;;;8.55;2.22;;;8.10;99.90;;;;;;4981549;28;20125;-72
2023/03/04 11:31:09;;;;;;;8.97;2.17;;;8.10;99.90;;;;;;4992517;28;20507;-72
2023/03/04 11:33:58;;;;;;;8.10;1.88;;;8.10;99.90;;;;;;4989315;28;20739;-72
2023/03/04 11:37:15;;;;;;;13.35;3.67;;;8.10;99.90;;;;;;4978221;28;20124;-72
2023/03/04 11:40:09;;;;;;;5.95;1.38;;;8.00;99.90;;;;;;4973589;28;20104;-72
2023/03/04 11:42:44;;;;;;;6.63;1.88;;;8.00;99.90;;;;;;4977466;28;20120;-72
2023/03/04 11:45:24;;;;;;;17.98;6.07;;;8.00;99.90;;;;;;4975740;28;20065;-72
2023/03/04 11:48:01;;;;;;;19.85;7.43;;;8.10;99.90;;;;;;4987044;28;20062;-73
2023/03/04 11:50:27;;;;;;;17.73;7.18;;;8.30;99.90;;;;;;4993366;28;20074;-73
2023/03/04 11:53:26;;;;;;;18.07;6.10;;;8.30;99.90;;;;;;4993207;28;20046;-73
2023/03/04 11:56:04;;;;;;;15.77;4.75;;;8.30;99.90;;;;;;4989910;28;20295;-73
2023/03/04 11:58:57;;;;;;;17.45;3.03;;;8.20;99.90;;;;;;4977403;28;20050;-73
2023/03/04 12:01:40;;;;;;;7.05;2.20;;;8.10;99.90;;;;;;4972585;28;20037;-73
2023/03/04 12:04:24;;;;;;;15.85;2.40;;;8.10;99.90;;;;;;4971429;28;20120;-72
2023/03/04 12:06:56;;;;;;;9.32;1.50;;;8.00;99.90;;;;;;5007175;28;20064;-73
2023/03/04 12:09:31;;;;;;;5.07;1.30;;;7.90;99.90;;;;;;4979954;28;20042;-73
2023/03/04 12:12:21;;;;;;;4.95;1.35;;;7.90;99.90;;;;;;4994542;28;21115;-73
2023/03/04 12:15:08;;;;;;;10.40;1.42;;;7.90;99.90;;;;;;4974185;28;20092;-73
2023/03/04 12:18:15;;;;;;;6.65;1.20;;;8.00;99.90;;;;;;4984568;28;20536;-73
2023/03/04 12:20:55;;;;;;;8.73;1.05;;;8.10;99.90;;;;;;4927676;29;20043;-73
2023/03/04 12:24:01;;;;;;;5.30;1.23;;;8.30;99.90;;;;;;4999192;28;20054;-73
2023/03/04 12:26:56;;;;;;;6.18;1.45;;;8.50;99.90;;;;;;5009131;28;20646;-73
2023/03/04 12:29:48;;;;;;;13.95;1.67;;;8.60;99.90;;;;;;4968304;28;20042;-73
2023/03/04 12:32:25;;;;;;;10.55;1.58;;;8.50;99.90;;;;;;4984321;28;20052;-73
2023/03/04 12:35:03;;;;;;;8.35;1.65;;;8.30;99.90;;;;;;4982759;28;20052;-73
2023/03/04 12:37:47;;;;;;;10.07;1.70;;;8.20;99.90;;;;;;4990450;28;20136;-73
2023/03/04 12:40:27;;;;;;;15.20;2.15;;;8.10;99.90;;;;;;4996923;28;20041;-73
2023/03/04 12:43:23;;;;;;;11.75;2.10;;;8.00;99.90;;;;;;4995366;28;20110;-72
2023/03/04 12:46:14;;;;;;;6.70;1.50;;;8.00;99.90;;;;;;4994189;28;20120;-73
2023/03/04 12:48:47;;;;;;;8.38;1.42;;;8.40;99.90;;;;;;4983145;28;20133;-72
2023/03/04 12:51:34;;;;;;;11.82;1.55;;;8.70;99.90;;;;;;4995389;28;20038;-72
2023/03/04 12:54:25;;;;;;;7.78;1.50;;;8.80;99.90;;;;;;4983088;28;20042;-72
2023/03/04 12:57:01;;;;;;;6.25;1.15;;;8.70;99.90;;;;;;4968126;28;20441;-72
2023/03/04 12:59:34;;;;;;;5.22;1.25;;;8.60;99.90;;;;;;4975797;28;20054;-73
2023/03/04 13:02:02;;;;;;;10.05;1.98;;;8.50;99.90;;;;;;4979731;28;20620;-73
2023/03/04 13:04:36;;;;;;;10.38;1.55;;;8.50;99.90;;;;;;4977135;28;20045;-73
2023/03/04 13:07:28;;;;;;;14.80;1.55;;;8.50;99.90;;;;;;4979823;28;20061;-73
2023/03/04 13:09:59;;;;;;;6.00;1.58;;;8.70;99.90;;;;;;4998267;28;20050;-73